Green Bay — V7IA3 — position and weather

sailwx.info

Track history (hours):
 
Tides and Currents Weather Stations Pressure Air Temp Water Temp Dewpoint Dewpoint Depression Visibility Wind Speed Wind Dir Waves Ship Positions

Green Bay

Last reported at 2018-Aug-15 02:28 UTC. Time now 2018-Aug-15 03:00 UTC.
Position N 59°53' E 030°11'.

Length 200 m; draft 8.6 m.

Type: Cargo ship. MMSI: 367311350.

Date/timePositionNaut miles runAvg speedWind from/ knotsBaromVisibWave heightAir tempDewpointWater temp
2018-Aug-15 02:28N 59°53' E 030°11'0 0.0
2018-Aug-15 01:58N 59°53' E 030°11'0 0.0
2018-Aug-15 01:28N 59°53' E 030°11'0 0.0
2018-Aug-15 00:58N 59°53' E 030°11'0 0.0
2018-Aug-15 00:28N 59°53' E 030°11'0 0.0
2018-Aug-14 23:58N 59°53' E 030°11'0 0.0
2018-Aug-14 23:28N 59°53' E 030°11'0 0.0
2018-Aug-14 22:55N 59°53' E 030°11'0 0.0
2018-Aug-14 22:28N 59°53' E 030°11'0 0.0
2018-Aug-14 21:58N 59°53' E 030°11'0 0.0
2018-Aug-14 21:25N 59°53' E 030°11'0 0.0
2018-Aug-14 20:58N 59°53' E 030°11'0 0.0
2018-Aug-14 20:28N 59°53' E 030°11'0 0.0
2018-Aug-14 19:58N 59°53' E 030°11'0 0.0
2018-Aug-14 19:28N 59°53' E 030°11'0 0.0
2018-Aug-14 18:58N 59°53' E 030°11'0 0.0
2018-Aug-14 18:25N 59°53' E 030°11'0 0.0
2018-Aug-14 17:58N 59°53' E 030°11'0 0.0
2018-Aug-14 17:28N 59°53' E 030°11'0 0.0
2018-Aug-14 16:58N 59°53' E 030°11'0 0.0
2018-Aug-14 16:28N 59°53' E 030°11'0 0.0
2018-Aug-14 15:58N 59°53' E 030°11'0 0.0
2018-Aug-14 15:28N 59°53' E 030°11'0 0.0
2018-Aug-14 14:58N 59°53' E 030°11'0 0.0
2018-Aug-14 14:29N 59°53' E 030°11'0 0.0
2018-Aug-14 13:58N 59°53' E 030°11'0 0.0
2018-Aug-14 13:30N 59°53' E 030°11'0 0.0
2018-Aug-14 12:58N 59°53' E 030°11'0 0.0
2018-Aug-14 12:25N 59°53' E 030°11'0 0.0
2018-Aug-14 11:58N 59°53' E 030°11'0 0.0
2018-Aug-14 11:25N 59°53' E 030°11'0 0.0
2018-Aug-14 10:58N 59°53' E 030°11'0 0.0
2018-Aug-14 10:28N 59°53' E 030°11'0 0.0
2018-Aug-14 09:58N 59°53' E 030°11'0 0.0
2018-Aug-14 09:25N 59°53' E 030°11'0 0.0
2018-Aug-14 08:58N 59°53' E 030°11'0 0.0
2018-Aug-14 08:28N 59°53' E 030°11'0 0.0
2018-Aug-14 07:58N 59°53' E 030°11'0 0.0
2018-Aug-14 07:28N 59°53' E 030°11'0 0.0
2018-Aug-14 06:58N 59°53' E 030°11'0 0.0
2018-Aug-14 06:28N 59°53' E 030°11'0 0.0
2018-Aug-14 05:58N 59°53' E 030°11'0 0.3
2018-Aug-14 05:30N 59°53' E 030°11'3 6.0
2018-Aug-14 05:00N 59°54' E 030°05'510.1
2018-Aug-14 04:31N 59°56' E 029°56'510.6
2018-Aug-14 04:00N 59°58' E 029°47'15 0.7
2018-Aug-13 07:11N 60°06' E 029°20'0 0.0
2018-Aug-13 06:10N 60°06' E 029°20'0 0.0
2018-Aug-13 05:57N 60°06' E 029°20'0 0.0
2018-Aug-13 05:11N 60°06' E 029°20'0 0.0
2018-Aug-13 04:59N 60°06' E 029°20'0 0.1
2018-Aug-13 04:29N 60°06' E 029°20'0 0.0
2018-Aug-13 03:59N 60°06' E 029°20'0 0.0
2018-Aug-13 03:26N 60°06' E 029°20'0 0.0
2018-Aug-13 02:59N 60°06' E 029°20'0 0.0
2018-Aug-13 02:29N 60°05' E 029°20'0 0.0
2018-Aug-13 01:20N 60°06' E 029°20'0 0.0
2018-Aug-13 00:23N 60°06' E 029°20'0 0.1
2018-Aug-12 23:44N 60°06' E 029°20'0 0.1
2018-Aug-12 23:26N 60°06' E 029°20'0 0.0
2018-Aug-12 13:35N 60°05' E 029°20'0 0.1
2018-Aug-12 13:23N 60°05' E 029°20'0 0.0
2018-Aug-12 12:59N 60°05' E 029°20'0 0.0
2018-Aug-12 12:26N 60°05' E 029°20'0 0.0
2018-Aug-12 09:05N 60°05' E 029°20'0 0.0
2018-Aug-12 08:56N 60°05' E 029°20'0 0.0
2018-Aug-12 08:23N 60°05' E 029°20'0 0.0
2018-Aug-12 07:59N 60°05' E 029°20'0 0.0
2018-Aug-12 06:41N 60°05' E 029°20'0 0.0
2018-Aug-12 06:02N 60°05' E 029°20'0 0.1
2018-Aug-12 05:59N 60°05' E 029°20'0 0.0
2018-Aug-12 05:20N 60°05' E 029°20'3 1.7
2018-Aug-12 03:32N 60°03' E 029°17'1 6.6
2018-Aug-12 03:19N 60°01' E 029°16'3 7.7
2018-Aug-12 02:53N 60°02' E 029°10'513.6
2018-Aug-12 02:30N 60°02' E 028°59'713.9
2018-Aug-12 02:00N 60°02' E 028°46'714.0
2018-Aug-12 01:30N 60°02' E 028°32'713.5
2018-Aug-12 01:00N 60°05' E 028°20'713.6
2018-Aug-12 00:29N 60°08' E 028°07'713.7
2018-Aug-12 00:00N 60°10' E 027°54'612.3
2018-Aug-11 23:30N 60°10' E 027°42'713.8
2018-Aug-11 23:00N 60°06' E 027°30'713.9
2018-Aug-11 22:30N 60°02' E 027°18'815.0
2018-Aug-11 22:00N 59°58' E 027°05'611.4
2018-Aug-11 21:30N 59°58' E 026°54'713.1
2018-Aug-11 21:00N 59°59' E 026°41'713.7
2018-Aug-11 20:30N 59°58' E 026°28'713.4
2018-Aug-11 20:01N 59°56' E 026°15'713.1
2018-Aug-11 19:30N 59°54' E 026°02'713.1
2018-Aug-11 19:00N 59°52' E 025°49'813.4
2018-Aug-11 18:26N 59°51' E 025°35'613.4
2018-Aug-11 17:58N 59°49' E 025°22'713.5
2018-Aug-11 17:29N 59°48' E 025°10'613.3
2018-Aug-11 17:00N 59°47' E 024°57'713.5
2018-Aug-11 16:30N 59°46' E 024°44'713.6
2018-Aug-11 16:00N 59°44' E 024°31'713.6
2018-Aug-11 15:30N 59°42' E 024°18'1013.7
2018-Aug-11 14:49N 59°39' E 024°00'414.0
2018-Aug-11 14:30N 59°38' E 023°52'714.0
2018-Aug-11 13:59N 59°35' E 023°38'713.7
2018-Aug-11 13:29N 59°33' E 023°26'30612.3
2018-Aug-10 12:41N 55°04' E 018°56'512.2
2018-Aug-10 12:17N 54°59' E 018°57'312.4
2018-Aug-10 12:00N 54°56' E 018°57'612.4
2018-Aug-10 11:30N 54°50' E 018°58'612.9
2018-Aug-10 11:00N 54°43' E 018°58'713.4
2018-Aug-10 10:30N 54°37' E 018°55'510.6
2018-Aug-10 10:00N 54°33' E 018°50'4 7.2
2018-Aug-10 09:30N 54°32' E 018°44'1 1.6
2018-Aug-10 09:00N 54°31' E 018°43'0 0.0
2018-Aug-10 08:30N 54°31' E 018°43'0 0.2
2018-Aug-10 08:00N 54°31' E 018°43'0 0.1
2018-Aug-10 07:30N 54°31' E 018°43'0 0.1
2018-Aug-10 07:00N 54°31' E 018°43'0 0.0
2018-Aug-10 06:30N 54°31' E 018°43'0 0.0
2018-Aug-10 06:00N 54°31' E 018°43'0 0.0
2018-Aug-10 05:30N 54°31' E 018°43'0 0.0
2018-Aug-10 05:00N 54°31' E 018°43'0 0.0
2018-Aug-10 04:30N 54°31' E 018°43'0 0.0
2018-Aug-10 04:00N 54°31' E 018°43'0 0.0
2018-Aug-10 03:30N 54°31' E 018°43'0 0.0
2018-Aug-10 03:00N 54°31' E 018°43'0 0.0
2018-Aug-10 02:30N 54°31' E 018°43'0 0.1
2018-Aug-10 02:00N 54°31' E 018°43'0 0.0
2018-Aug-10 01:30N 54°31' E 018°43'0 0.0
2018-Aug-10 01:00N 54°31' E 018°43'0 0.0
2018-Aug-10 00:30N 54°31' E 018°43'0 0.0
2018-Aug-10 00:00N 54°31' E 018°43'0 0.0
2018-Aug-09 23:30N 54°31' E 018°43'0 0.0
2018-Aug-09 23:00N 54°31' E 018°43'0 0.0
2018-Aug-09 22:30N 54°31' E 018°43'0 0.0
2018-Aug-09 22:00N 54°31' E 018°43'0 0.0
2018-Aug-09 21:30N 54°31' E 018°43'0 0.0
2018-Aug-09 21:00N 54°31' E 018°43'0 0.0
2018-Aug-09 20:30N 54°31' E 018°43'0 0.0
2018-Aug-09 20:00N 54°31' E 018°43'0 0.1
2018-Aug-09 19:30N 54°31' E 018°42'0 0.0
2018-Aug-09 19:00N 54°31' E 018°42'0 0.0
2018-Aug-09 18:30N 54°31' E 018°42'0 0.0
2018-Aug-09 18:00N 54°31' E 018°42'0 0.0
2018-Aug-09 17:30N 54°31' E 018°42'0 0.0
2018-Aug-09 17:00N 54°31' E 018°42'0 0.0
2018-Aug-09 16:30N 54°31' E 018°42'0 0.0
2018-Aug-09 16:00N 54°31' E 018°42'0 0.0
2018-Aug-09 15:30N 54°31' E 018°42'0 0.0
2018-Aug-09 15:00N 54°31' E 018°42'0 0.0
2018-Aug-09 14:30N 54°31' E 018°42'0 0.0
2018-Aug-09 14:00N 54°31' E 018°42'0 0.0
2018-Aug-09 13:30N 54°31' E 018°42'0 0.0
2018-Aug-09 13:00N 54°31' E 018°42'0 0.0
2018-Aug-09 12:30N 54°31' E 018°42'0 0.0
2018-Aug-09 12:00N 54°31' E 018°42'0 0.0
2018-Aug-09 11:30N 54°31' E 018°42'0 0.0
2018-Aug-09 11:00N 54°31' E 018°42'0 0.0
2018-Aug-09 10:30N 54°31' E 018°42'0 0.1
2018-Aug-09 10:00N 54°31' E 018°42'0 0.1
2018-Aug-09 09:30N 54°31' E 018°42'0 0.1
2018-Aug-09 09:00N 54°31' E 018°43'0 0.0
2018-Aug-09 08:30N 54°31' E 018°43'0 0.0
2018-Aug-09 08:00N 54°31' E 018°43'0 0.0
2018-Aug-09 07:30N 54°31' E 018°43'0 0.0
2018-Aug-09 07:00N 54°31' E 018°43'0 0.0
2018-Aug-09 06:30N 54°31' E 018°43'0 0.0
2018-Aug-09 06:00N 54°31' E 018°43'0 0.0
2018-Aug-09 05:30N 54°31' E 018°43'0 0.0
2018-Aug-09 05:00N 54°31' E 018°43'0 0.0
2018-Aug-09 04:30N 54°31' E 018°43'0 0.0
2018-Aug-09 04:00N 54°31' E 018°43'0 0.0
2018-Aug-09 03:30N 54°31' E 018°43'0 0.0
2018-Aug-09 03:00N 54°31' E 018°43'0 0.0
2018-Aug-09 02:30N 54°31' E 018°43'0 0.0
2018-Aug-09 02:00N 54°31' E 018°43'0 0.0
2018-Aug-09 01:30N 54°31' E 018°43'0 0.0
2018-Aug-09 01:00N 54°31' E 018°43'0 0.0
2018-Aug-09 00:30N 54°31' E 018°43'0 0.0
2018-Aug-09 00:00N 54°31' E 018°43'0 0.0
2018-Aug-08 23:30N 54°31' E 018°43'0 0.0
2018-Aug-08 23:00N 54°31' E 018°43'0 0.0
2018-Aug-08 22:30N 54°31' E 018°43'0 0.0
2018-Aug-08 22:00N 54°31' E 018°43'0 0.0
2018-Aug-08 21:30N 54°31' E 018°43'0 0.0
2018-Aug-08 21:00N 54°31' E 018°43'0 0.0
2018-Aug-08 20:30N 54°31' E 018°43'0 0.0
2018-Aug-08 20:00N 54°31' E 018°43'0 0.0
2018-Aug-08 19:30N 54°31' E 018°43'0 0.0
2018-Aug-08 19:00N 54°31' E 018°43'0 0.0
2018-Aug-08 18:30N 54°31' E 018°43'0 0.0
2018-Aug-08 18:00N 54°31' E 018°43'0 0.0
2018-Aug-08 17:30N 54°31' E 018°43'0 0.0
2018-Aug-08 17:00N 54°31' E 018°43'0 0.0
2018-Aug-08 16:30N 54°31' E 018°43'0 0.0
2018-Aug-08 16:00N 54°31' E 018°43'0 0.0
2018-Aug-08 15:30N 54°31' E 018°43'0 0.0
2018-Aug-08 15:00N 54°31' E 018°43'0 0.0
2018-Aug-08 14:30N 54°31' E 018°43'0 0.0
2018-Aug-08 14:00N 54°31' E 018°43'0 0.0
2018-Aug-08 13:30N 54°31' E 018°43'0 0.0
2018-Aug-08 13:00N 54°31' E 018°43'0 0.0
2018-Aug-08 12:27N 54°31' E 018°43'0 0.0
2018-Aug-08 12:00N 54°31' E 018°43'0 0.0
2018-Aug-08 11:30N 54°31' E 018°43'0 0.0
2018-Aug-08 11:00N 54°31' E 018°43'0 0.0
2018-Aug-08 10:30N 54°31' E 018°43'0 0.0
2018-Aug-08 10:00N 54°31' E 018°43'0 0.0
2018-Aug-08 09:30N 54°31' E 018°43'0 0.0
2018-Aug-08 09:00N 54°31' E 018°43'0 0.0
2018-Aug-08 08:30N 54°31' E 018°43'0 0.0
2018-Aug-08 08:00N 54°31' E 018°43'0 0.0
2018-Aug-08 07:30N 54°31' E 018°43'0 0.0
2018-Aug-08 07:00N 54°31' E 018°43'0 0.0
2018-Aug-08 06:30N 54°31' E 018°43'0 0.0
2018-Aug-08 06:00N 54°31' E 018°43'0 0.0
2018-Aug-08 05:30N 54°31' E 018°43'0 0.0
2018-Aug-08 05:00N 54°31' E 018°43'0 0.0
2018-Aug-08 04:30N 54°31' E 018°43'0 0.0
2018-Aug-08 04:00N 54°31' E 018°43'0 0.0
2018-Aug-08 03:30N 54°31' E 018°43'0 0.0
2018-Aug-08 03:00N 54°31' E 018°43'0 0.0
2018-Aug-08 02:30N 54°31' E 018°43'0 0.0
2018-Aug-08 02:00N 54°31' E 018°43'0 0.1
2018-Aug-08 01:27N 54°31' E 018°43'0 0.0
2018-Aug-08 01:00N 54°31' E 018°43'0 0.0
2018-Aug-08 00:30N 54°31' E 018°43'0 0.0
2018-Aug-08 00:00N 54°31' E 018°43'0 0.1
2018-Aug-07 23:30N 54°31' E 018°43'0 0.0
2018-Aug-07 22:39N 54°31' E 018°43'0 0.0
2018-Aug-07 22:24N 54°31' E 018°43'0 0.0
2018-Aug-07 21:36N 54°31' E 018°43'0 0.2
2018-Aug-07 21:27N 54°31' E 018°43'0 0.1
2018-Aug-07 20:57N 54°31' E 018°43'0 0.0
2018-Aug-07 20:24N 54°31' E 018°43'0 0.0
2018-Aug-07 19:51N 54°31' E 018°43'0 0.1
2018-Aug-07 19:30N 54°31' E 018°43'0 0.1
2018-Aug-07 16:33N 54°31' E 018°42'0 0.1
2018-Aug-07 16:30N 54°31' E 018°42'0 0.0
2018-Aug-07 16:00N 54°31' E 018°42'0 0.0
2018-Aug-07 15:30N 54°31' E 018°42'0 0.0
2018-Aug-07 15:00N 54°31' E 018°42'0 0.0
2018-Aug-07 14:30N 54°31' E 018°42'0 0.0
2018-Aug-07 14:00N 54°31' E 018°42'0 0.0
2018-Aug-07 13:30N 54°31' E 018°42'0 0.0
2018-Aug-07 13:00N 54°31' E 018°42'0 0.0
2018-Aug-07 12:30N 54°31' E 018°42'0 0.0
2018-Aug-07 12:00N 54°31' E 018°42'0 0.0
2018-Aug-07 11:30N 54°31' E 018°42'0 0.1
2018-Aug-07 11:00N 54°31' E 018°43'0 0.1
2018-Aug-07 10:30N 54°31' E 018°43'0 0.0
2018-Aug-07 09:57N 54°31' E 018°43'0 0.0
2018-Aug-07 09:30N 54°31' E 018°43'0 0.1
2018-Aug-07 09:00N 54°31' E 018°43'0 0.0
2018-Aug-07 08:30N 54°31' E 018°43'0 0.0
2018-Aug-07 08:00N 54°31' E 018°43'0 0.0
2018-Aug-07 07:30N 54°31' E 018°43'0 0.0
2018-Aug-07 06:57N 54°31' E 018°43'0 0.0
2018-Aug-07 06:30N 54°31' E 018°43'0 0.0
2018-Aug-07 06:00N 54°31' E 018°43'0 0.0
2018-Aug-07 05:30N 54°31' E 018°43'0 0.0
2018-Aug-07 05:00N 54°31' E 018°43'0 0.0
2018-Aug-07 04:30N 54°31' E 018°43'0 0.0
2018-Aug-07 04:00N 54°31' E 018°43'0 0.0
2018-Aug-07 03:30N 54°31' E 018°43'0 0.1
2018-Aug-07 03:00N 54°31' E 018°43'0 0.0
2018-Aug-07 02:30N 54°31' E 018°43'0 0.0
2018-Aug-07 02:00N 54°31' E 018°43'0 0.0
2018-Aug-07 01:30N 54°31' E 018°43'0 0.0
2018-Aug-07 01:00N 54°31' E 018°43'0 0.0
2018-Aug-07 00:24N 54°31' E 018°43'0 0.0
2018-Aug-06 23:54N 54°31' E 018°43'0 0.1
2018-Aug-06 23:30N 54°31' E 018°43'0 0.0
2018-Aug-06 23:00N 54°31' E 018°43'0 0.0
2018-Aug-06 22:30N 54°31' E 018°43'0 0.0
2018-Aug-06 22:00N 54°31' E 018°43'0 0.0
2018-Aug-06 21:30N 54°31' E 018°43'0 0.0
2018-Aug-06 21:00N 54°31' E 018°43'0 0.0
2018-Aug-06 20:30N 54°31' E 018°43'0 0.0
2018-Aug-06 20:00N 54°31' E 018°43'0 0.0
2018-Aug-06 19:30N 54°31' E 018°43'0 0.0
2018-Aug-06 19:00N 54°31' E 018°43'0 0.1
2018-Aug-06 18:30N 54°31' E 018°43'0 0.0
2018-Aug-06 18:00N 54°31' E 018°43'0 0.0
2018-Aug-06 17:30N 54°31' E 018°43'0 0.0
2018-Aug-06 10:15N 54°31' E 018°43'0 0.1
2018-Aug-06 10:00N 54°31' E 018°43'0 0.0
2018-Aug-06 09:30N 54°31' E 018°43'0 0.1
2018-Aug-06 09:00N 54°31' E 018°43'0 0.1
2018-Aug-06 08:30N 54°31' E 018°43'0 0.1
2018-Aug-06 08:00N 54°31' E 018°43'0 0.0
2018-Aug-06 07:30N 54°31' E 018°43'0 0.0
2018-Aug-06 06:57N 54°31' E 018°43'0 0.1
2018-Aug-06 06:30N 54°31' E 018°43'0 0.0
2018-Aug-06 06:00N 54°31' E 018°42'0 0.0
2018-Aug-06 05:30N 54°31' E 018°43'0 0.0
2018-Aug-06 05:00N 54°31' E 018°43'0 0.0
2018-Aug-06 04:30N 54°31' E 018°43'0 0.0
2018-Aug-06 04:00N 54°31' E 018°43'0 0.0
2018-Aug-06 03:30N 54°31' E 018°43'0 0.0
2018-Aug-06 03:00N 54°31' E 018°43'0 0.0
2018-Aug-06 02:30N 54°31' E 018°43'0 0.0
2018-Aug-06 01:57N 54°31' E 018°42'0 0.0
2018-Aug-06 01:30N 54°31' E 018°43'0 0.0
2018-Aug-06 01:00N 54°31' E 018°43'0 0.0
2018-Aug-06 00:30N 54°31' E 018°43'0 0.0
2018-Aug-06 00:00N 54°31' E 018°43'0 0.0
2018-Aug-05 23:30N 54°31' E 018°43'0 0.0
2018-Aug-05 23:00N 54°31' E 018°43'0 0.0
2018-Aug-05 22:27N 54°31' E 018°43'0 0.0
2018-Aug-05 22:00N 54°31' E 018°43'0 0.0
2018-Aug-05 21:30N 54°31' E 018°43'0 0.1
2018-Aug-05 21:00N 54°31' E 018°43'0 0.1
2018-Aug-05 20:30N 54°31' E 018°43'0 0.2
2018-Aug-05 20:00N 54°31' E 018°43'0 0.0
2018-Aug-05 19:30N 54°31' E 018°43'0 0.0
2018-Aug-05 19:00N 54°31' E 018°43'0 0.1
2018-Aug-05 18:30N 54°31' E 018°43'0 0.0
2018-Aug-05 18:00N 54°31' E 018°43'0 0.0
2018-Aug-05 17:30N 54°31' E 018°43'0 0.0
2018-Aug-05 16:57N 54°31' E 018°43'0 0.0
2018-Aug-05 16:30N 54°31' E 018°43'0 0.1
2018-Aug-05 16:00N 54°31' E 018°43'0 0.1
2018-Aug-05 15:30N 54°31' E 018°43'0 0.1
2018-Aug-05 15:00N 54°31' E 018°43'0 0.0
2018-Aug-05 14:00N 54°31' E 018°43'0 0.0
2018-Aug-05 13:30N 54°31' E 018°43'0 0.0
2018-Aug-05 13:00N 54°31' E 018°43'0 0.0
2018-Aug-05 12:30N 54°31' E 018°43'0 0.1
2018-Aug-05 11:54N 54°31' E 018°43'0 0.0
2018-Aug-05 11:30N 54°31' E 018°43'0 0.0
2018-Aug-05 11:00N 54°31' E 018°43'0 0.1
2018-Aug-05 10:30N 54°31' E 018°43'0 0.0
2018-Aug-05 10:00N 54°31' E 018°43'0 0.1
2018-Aug-05 09:30N 54°31' E 018°43'0 0.2
2018-Aug-05 09:00N 54°31' E 018°43'0 0.2
2018-Aug-05 08:30N 54°31' E 018°43'0 0.1
2018-Aug-05 08:00N 54°31' E 018°43'0 0.1
2018-Aug-05 07:30N 54°31' E 018°43'0 0.1
2018-Aug-05 07:00N 54°31' E 018°43'0 0.0
2018-Aug-05 06:30N 54°31' E 018°43'0 0.0
2018-Aug-05 06:00N 54°31' E 018°43'0 0.0
2018-Aug-05 05:30N 54°31' E 018°43'0 0.0
2018-Aug-05 05:00N 54°31' E 018°43'0 0.0
2018-Aug-05 04:30N 54°31' E 018°43'0 0.0
2018-Aug-05 04:00N 54°31' E 018°43'0 0.1
2018-Aug-05 03:30N 54°31' E 018°43'0 0.0
2018-Aug-05 03:00N 54°31' E 018°43'0 0.0
2018-Aug-05 02:30N 54°31' E 018°43'  
Track history (hours):
 
Tides and Currents Weather Stations Pressure Air Temp Water Temp Dewpoint Dewpoint Depression Visibility Wind Speed Wind Dir Waves Ship Positions

Green Bay

Last reported at 2018-Aug-15 02:28 UTC. Time now 2018-Aug-15 03:00 UTC.
Position N 59°53' E 030°11'.

Length 200 m; draft 8.6 m.

Type: Cargo ship. MMSI: 367311350.

Date/timePositionNaut miles runAvg speedWind from/ knotsBaromVisibWave heightAir tempDewpointWater temp
2018-Aug-15 02:28N 59°53' E 030°11'0 0.0
2018-Aug-15 01:58N 59°53' E 030°11'0 0.0
2018-Aug-15 01:28N 59°53' E 030°11'0 0.0
2018-Aug-15 00:58N 59°53' E 030°11'0 0.0
2018-Aug-15 00:28N 59°53' E 030°11'0 0.0
2018-Aug-14 23:58N 59°53' E 030°11'0 0.0
2018-Aug-14 23:28N 59°53' E 030°11'0 0.0
2018-Aug-14 22:55N 59°53' E 030°11'0 0.0
2018-Aug-14 22:28N 59°53' E 030°11'0 0.0
2018-Aug-14 21:58N 59°53' E 030°11'0 0.0
2018-Aug-14 21:25N 59°53' E 030°11'0 0.0
2018-Aug-14 20:58N 59°53' E 030°11'0 0.0
2018-Aug-14 20:28N 59°53' E 030°11'0 0.0
2018-Aug-14 19:58N 59°53' E 030°11'0 0.0
2018-Aug-14 19:28N 59°53' E 030°11'0 0.0
2018-Aug-14 18:58N 59°53' E 030°11'0 0.0
2018-Aug-14 18:25N 59°53' E 030°11'0 0.0
2018-Aug-14 17:58N 59°53' E 030°11'0 0.0
2018-Aug-14 17:28N 59°53' E 030°11'0 0.0
2018-Aug-14 16:58N 59°53' E 030°11'0 0.0
2018-Aug-14 16:28N 59°53' E 030°11'0 0.0
2018-Aug-14 15:58N 59°53' E 030°11'0 0.0
2018-Aug-14 15:28N 59°53' E 030°11'0 0.0
2018-Aug-14 14:58N 59°53' E 030°11'0 0.0
2018-Aug-14 14:29N 59°53' E 030°11'0 0.0
2018-Aug-14 13:58N 59°53' E 030°11'0 0.0
2018-Aug-14 13:30N 59°53' E 030°11'0 0.0
2018-Aug-14 12:58N 59°53' E 030°11'0 0.0
2018-Aug-14 12:25N 59°53' E 030°11'0 0.0
2018-Aug-14 11:58N 59°53' E 030°11'0 0.0
2018-Aug-14 11:25N 59°53' E 030°11'0 0.0
2018-Aug-14 10:58N 59°53' E 030°11'0 0.0
2018-Aug-14 10:28N 59°53' E 030°11'0 0.0
2018-Aug-14 09:58N 59°53' E 030°11'0 0.0
2018-Aug-14 09:25N 59°53' E 030°11'0 0.0
2018-Aug-14 08:58N 59°53' E 030°11'0 0.0
2018-Aug-14 08:28N 59°53' E 030°11'0 0.0
2018-Aug-14 07:58N 59°53' E 030°11'0 0.0
2018-Aug-14 07:28N 59°53' E 030°11'0 0.0
2018-Aug-14 06:58N 59°53' E 030°11'0 0.0
2018-Aug-14 06:28N 59°53' E 030°11'0 0.0
2018-Aug-14 05:58N 59°53' E 030°11'0 0.3
2018-Aug-14 05:30N 59°53' E 030°11'3 6.0
2018-Aug-14 05:00N 59°54' E 030°05'510.1
2018-Aug-14 04:31N 59°56' E 029°56'510.6
2018-Aug-14 04:00N 59°58' E 029°47'15 0.7
2018-Aug-13 07:11N 60°06' E 029°20'0 0.0
2018-Aug-13 06:10N 60°06' E 029°20'0 0.0
2018-Aug-13 05:57N 60°06' E 029°20'0 0.0
2018-Aug-13 05:11N 60°06' E 029°20'0 0.0
2018-Aug-13 04:59N 60°06' E 029°20'0 0.1
2018-Aug-13 04:29N 60°06' E 029°20'0 0.0
2018-Aug-13 03:59N 60°06' E 029°20'0 0.0
2018-Aug-13 03:26N 60°06' E 029°20'0 0.0
2018-Aug-13 02:59N 60°06' E 029°20'0 0.0
2018-Aug-13 02:29N 60°05' E 029°20'0 0.0
2018-Aug-13 01:20N 60°06' E 029°20'0 0.0
2018-Aug-13 00:23N 60°06' E 029°20'0 0.1
2018-Aug-12 23:44N 60°06' E 029°20'0 0.1
2018-Aug-12 23:26N 60°06' E 029°20'0 0.0
2018-Aug-12 13:35N 60°05' E 029°20'0 0.1
2018-Aug-12 13:23N 60°05' E 029°20'0 0.0
2018-Aug-12 12:59N 60°05' E 029°20'0 0.0
2018-Aug-12 12:26N 60°05' E 029°20'0 0.0
2018-Aug-12 09:05N 60°05' E 029°20'0 0.0
2018-Aug-12 08:56N 60°05' E 029°20'0 0.0
2018-Aug-12 08:23N 60°05' E 029°20'0 0.0
2018-Aug-12 07:59N 60°05' E 029°20'0 0.0
2018-Aug-12 06:41N 60°05' E 029°20'0 0.0
2018-Aug-12 06:02N 60°05' E 029°20'0 0.1
2018-Aug-12 05:59N 60°05' E 029°20'0 0.0
2018-Aug-12 05:20N 60°05' E 029°20'3 1.7
2018-Aug-12 03:32N 60°03' E 029°17'1 6.6
2018-Aug-12 03:19N 60°01' E 029°16'3 7.7
2018-Aug-12 02:53N 60°02' E 029°10'513.6
2018-Aug-12 02:30N 60°02' E 028°59'713.9
2018-Aug-12 02:00N 60°02' E 028°46'714.0
2018-Aug-12 01:30N 60°02' E 028°32'713.5
2018-Aug-12 01:00N 60°05' E 028°20'713.6
2018-Aug-12 00:29N 60°08' E 028°07'713.7
2018-Aug-12 00:00N 60°10' E 027°54'612.3
2018-Aug-11 23:30N 60°10' E 027°42'713.8
2018-Aug-11 23:00N 60°06' E 027°30'713.9
2018-Aug-11 22:30N 60°02' E 027°18'815.0
2018-Aug-11 22:00N 59°58' E 027°05'611.4
2018-Aug-11 21:30N 59°58' E 026°54'713.1
2018-Aug-11 21:00N 59°59' E 026°41'713.7
2018-Aug-11 20:30N 59°58' E 026°28'713.4
2018-Aug-11 20:01N 59°56' E 026°15'713.1
2018-Aug-11 19:30N 59°54' E 026°02'713.1
2018-Aug-11 19:00N 59°52' E 025°49'813.4
2018-Aug-11 18:26N 59°51' E 025°35'613.4
2018-Aug-11 17:58N 59°49' E 025°22'713.5
2018-Aug-11 17:29N 59°48' E 025°10'613.3
2018-Aug-11 17:00N 59°47' E 024°57'713.5
2018-Aug-11 16:30N 59°46' E 024°44'713.6
2018-Aug-11 16:00N 59°44' E 024°31'713.6
2018-Aug-11 15:30N 59°42' E 024°18'1013.7
2018-Aug-11 14:49N 59°39' E 024°00'414.0
2018-Aug-11 14:30N 59°38' E 023°52'714.0
2018-Aug-11 13:59N 59°35' E 023°38'713.7
2018-Aug-11 13:29N 59°33' E 023°26'30612.3
2018-Aug-10 12:41N 55°04' E 018°56'512.2
2018-Aug-10 12:17N 54°59' E 018°57'312.4
2018-Aug-10 12:00N 54°56' E 018°57'612.4
2018-Aug-10 11:30N 54°50' E 018°58'612.9
2018-Aug-10 11:00N 54°43' E 018°58'713.4
2018-Aug-10 10:30N 54°37' E 018°55'510.6
2018-Aug-10 10:00N 54°33' E 018°50'4 7.2
2018-Aug-10 09:30N 54°32' E 018°44'1 1.6
2018-Aug-10 09:00N 54°31' E 018°43'0 0.0
2018-Aug-10 08:30N 54°31' E 018°43'0 0.2
2018-Aug-10 08:00N 54°31' E 018°43'0 0.1
2018-Aug-10 07:30N 54°31' E 018°43'0 0.1
2018-Aug-10 07:00N 54°31' E 018°43'0 0.0
2018-Aug-10 06:30N 54°31' E 018°43'0 0.0
2018-Aug-10 06:00N 54°31' E 018°43'0 0.0
2018-Aug-10 05:30N 54°31' E 018°43'0 0.0
2018-Aug-10 05:00N 54°31' E 018°43'0 0.0
2018-Aug-10 04:30N 54°31' E 018°43'0 0.0
2018-Aug-10 04:00N 54°31' E 018°43'0 0.0
2018-Aug-10 03:30N 54°31' E 018°43'0 0.0
2018-Aug-10 03:00N 54°31' E 018°43'0 0.0
2018-Aug-10 02:30N 54°31' E 018°43'0 0.1
2018-Aug-10 02:00N 54°31' E 018°43'0 0.0
2018-Aug-10 01:30N 54°31' E 018°43'0 0.0
2018-Aug-10 01:00N 54°31' E 018°43'0 0.0
2018-Aug-10 00:30N 54°31' E 018°43'0 0.0
2018-Aug-10 00:00N 54°31' E 018°43'0 0.0
2018-Aug-09 23:30N 54°31' E 018°43'0 0.0
2018-Aug-09 23:00N 54°31' E 018°43'0 0.0
2018-Aug-09 22:30N 54°31' E 018°43'0 0.0
2018-Aug-09 22:00N 54°31' E 018°43'0 0.0
2018-Aug-09 21:30N 54°31' E 018°43'0 0.0
2018-Aug-09 21:00N 54°31' E 018°43'0 0.0
2018-Aug-09 20:30N 54°31' E 018°43'0 0.0
2018-Aug-09 20:00N 54°31' E 018°43'0 0.1
2018-Aug-09 19:30N 54°31' E 018°42'0 0.0
2018-Aug-09 19:00N 54°31' E 018°42'0 0.0
2018-Aug-09 18:30N 54°31' E 018°42'0 0.0
2018-Aug-09 18:00N 54°31' E 018°42'0 0.0
2018-Aug-09 17:30N 54°31' E 018°42'0 0.0
2018-Aug-09 17:00N 54°31' E 018°42'0 0.0
2018-Aug-09 16:30N 54°31' E 018°42'0 0.0
2018-Aug-09 16:00N 54°31' E 018°42'0 0.0
2018-Aug-09 15:30N 54°31' E 018°42'0 0.0
2018-Aug-09 15:00N 54°31' E 018°42'0 0.0
2018-Aug-09 14:30N 54°31' E 018°42'0 0.0
2018-Aug-09 14:00N 54°31' E 018°42'0 0.0
2018-Aug-09 13:30N 54°31' E 018°42'0 0.0
2018-Aug-09 13:00N 54°31' E 018°42'0 0.0
2018-Aug-09 12:30N 54°31' E 018°42'0 0.0
2018-Aug-09 12:00N 54°31' E 018°42'0 0.0
2018-Aug-09 11:30N 54°31' E 018°42'0 0.0
2018-Aug-09 11:00N 54°31' E 018°42'0 0.0
2018-Aug-09 10:30N 54°31' E 018°42'0 0.1
2018-Aug-09 10:00N 54°31' E 018°42'0 0.1
2018-Aug-09 09:30N 54°31' E 018°42'0 0.1
2018-Aug-09 09:00N 54°31' E 018°43'0 0.0
2018-Aug-09 08:30N 54°31' E 018°43'0 0.0
2018-Aug-09 08:00N 54°31' E 018°43'0 0.0
2018-Aug-09 07:30N 54°31' E 018°43'0 0.0
2018-Aug-09 07:00N 54°31' E 018°43'0 0.0
2018-Aug-09 06:30N 54°31' E 018°43'0 0.0
2018-Aug-09 06:00N 54°31' E 018°43'0 0.0
2018-Aug-09 05:30N 54°31' E 018°43'0 0.0
2018-Aug-09 05:00N 54°31' E 018°43'0 0.0
2018-Aug-09 04:30N 54°31' E 018°43'0 0.0
2018-Aug-09 04:00N 54°31' E 018°43'0 0.0
2018-Aug-09 03:30N 54°31' E 018°43'0 0.0
2018-Aug-09 03:00N 54°31' E 018°43'0 0.0
2018-Aug-09 02:30N 54°31' E 018°43'0 0.0
2018-Aug-09 02:00N 54°31' E 018°43'0 0.0
2018-Aug-09 01:30N 54°31' E 018°43'0 0.0
2018-Aug-09 01:00N 54°31' E 018°43'0 0.0
2018-Aug-09 00:30N 54°31' E 018°43'0 0.0
2018-Aug-09 00:00N 54°31' E 018°43'0 0.0
2018-Aug-08 23:30N 54°31' E 018°43'0 0.0
2018-Aug-08 23:00N 54°31' E 018°43'0 0.0
2018-Aug-08 22:30N 54°31' E 018°43'0 0.0
2018-Aug-08 22:00N 54°31' E 018°43'0 0.0
2018-Aug-08 21:30N 54°31' E 018°43'0 0.0
2018-Aug-08 21:00N 54°31' E 018°43'0 0.0
2018-Aug-08 20:30N 54°31' E 018°43'0 0.0
2018-Aug-08 20:00N 54°31' E 018°43'0 0.0
2018-Aug-08 19:30N 54°31' E 018°43'0 0.0
2018-Aug-08 19:00N 54°31' E 018°43'0 0.0
2018-Aug-08 18:30N 54°31' E 018°43'0 0.0
2018-Aug-08 18:00N 54°31' E 018°43'0 0.0
2018-Aug-08 17:30N 54°31' E 018°43'0 0.0
2018-Aug-08 17:00N 54°31' E 018°43'0 0.0
2018-Aug-08 16:30N 54°31' E 018°43'0 0.0
2018-Aug-08 16:00N 54°31' E 018°43'0 0.0
2018-Aug-08 15:30N 54°31' E 018°43'0 0.0
2018-Aug-08 15:00N 54°31' E 018°43'0 0.0
2018-Aug-08 14:30N 54°31' E 018°43'0 0.0
2018-Aug-08 14:00N 54°31' E 018°43'0 0.0
2018-Aug-08 13:30N 54°31' E 018°43'0 0.0
2018-Aug-08 13:00N 54°31' E 018°43'0 0.0
2018-Aug-08 12:27N 54°31' E 018°43'0 0.0
2018-Aug-08 12:00N 54°31' E 018°43'0 0.0
2018-Aug-08 11:30N 54°31' E 018°43'0 0.0
2018-Aug-08 11:00N 54°31' E 018°43'0 0.0
2018-Aug-08 10:30N 54°31' E 018°43'0 0.0
2018-Aug-08 10:00N 54°31' E 018°43'0 0.0
2018-Aug-08 09:30N 54°31' E 018°43'0 0.0
2018-Aug-08 09:00N 54°31' E 018°43'0 0.0
2018-Aug-08 08:30N 54°31' E 018°43'0 0.0
2018-Aug-08 08:00N 54°31' E 018°43'0 0.0
2018-Aug-08 07:30N 54°31' E 018°43'0 0.0
2018-Aug-08 07:00N 54°31' E 018°43'0 0.0
2018-Aug-08 06:30N 54°31' E 018°43'0 0.0
2018-Aug-08 06:00N 54°31' E 018°43'0 0.0
2018-Aug-08 05:30N 54°31' E 018°43'0 0.0
2018-Aug-08 05:00N 54°31' E 018°43'0 0.0
2018-Aug-08 04:30N 54°31' E 018°43'0 0.0
2018-Aug-08 04:00N 54°31' E 018°43'0 0.0
2018-Aug-08 03:30N 54°31' E 018°43'0 0.0
2018-Aug-08 03:00N 54°31' E 018°43'0 0.0
2018-Aug-08 02:30N 54°31' E 018°43'0 0.0
2018-Aug-08 02:00N 54°31' E 018°43'0 0.1
2018-Aug-08 01:27N 54°31' E 018°43'0 0.0
2018-Aug-08 01:00N 54°31' E 018°43'0 0.0
2018-Aug-08 00:30N 54°31' E 018°43'0 0.0
2018-Aug-08 00:00N 54°31' E 018°43'0 0.1
2018-Aug-07 23:30N 54°31' E 018°43'0 0.0
2018-Aug-07 22:39N 54°31' E 018°43'0 0.0
2018-Aug-07 22:24N 54°31' E 018°43'0 0.0
2018-Aug-07 21:36N 54°31' E 018°43'0 0.2
2018-Aug-07 21:27N 54°31' E 018°43'0 0.1
2018-Aug-07 20:57N 54°31' E 018°43'0 0.0
2018-Aug-07 20:24N 54°31' E 018°43'0 0.0
2018-Aug-07 19:51N 54°31' E 018°43'0 0.1
2018-Aug-07 19:30N 54°31' E 018°43'0 0.1
2018-Aug-07 16:33N 54°31' E 018°42'0 0.1
2018-Aug-07 16:30N 54°31' E 018°42'0 0.0
2018-Aug-07 16:00N 54°31' E 018°42'0 0.0
2018-Aug-07 15:30N 54°31' E 018°42'0 0.0
2018-Aug-07 15:00N 54°31' E 018°42'0 0.0
2018-Aug-07 14:30N 54°31' E 018°42'0 0.0
2018-Aug-07 14:00N 54°31' E 018°42'0 0.0
2018-Aug-07 13:30N 54°31' E 018°42'0 0.0
2018-Aug-07 13:00N 54°31' E 018°42'0 0.0
2018-Aug-07 12:30N 54°31' E 018°42'0 0.0
2018-Aug-07 12:00N 54°31' E 018°42'0 0.0
2018-Aug-07 11:30N 54°31' E 018°42'0 0.1
2018-Aug-07 11:00N 54°31' E 018°43'0 0.1
2018-Aug-07 10:30N 54°31' E 018°43'0 0.0
2018-Aug-07 09:57N 54°31' E 018°43'0 0.0
2018-Aug-07 09:30N 54°31' E 018°43'0 0.1
2018-Aug-07 09:00N 54°31' E 018°43'0 0.0
2018-Aug-07 08:30N 54°31' E 018°43'0 0.0
2018-Aug-07 08:00N 54°31' E 018°43'0 0.0
2018-Aug-07 07:30N 54°31' E 018°43'0 0.0
2018-Aug-07 06:57N 54°31' E 018°43'0 0.0
2018-Aug-07 06:30N 54°31' E 018°43'0 0.0
2018-Aug-07 06:00N 54°31' E 018°43'0 0.0
2018-Aug-07 05:30N 54°31' E 018°43'0 0.0
2018-Aug-07 05:00N 54°31' E 018°43'0 0.0
2018-Aug-07 04:30N 54°31' E 018°43'0 0.0
2018-Aug-07 04:00N 54°31' E 018°43'0 0.0
2018-Aug-07 03:30N 54°31' E 018°43'0 0.1
2018-Aug-07 03:00N 54°31' E 018°43'0 0.0
2018-Aug-07 02:30N 54°31' E 018°43'0 0.0
2018-Aug-07 02:00N 54°31' E 018°43'0 0.0
2018-Aug-07 01:30N 54°31' E 018°43'0 0.0
2018-Aug-07 01:00N 54°31' E 018°43'0 0.0
2018-Aug-07 00:24N 54°31' E 018°43'0 0.0
2018-Aug-06 23:54N 54°31' E 018°43'0 0.1
2018-Aug-06 23:30N 54°31' E 018°43'0 0.0
2018-Aug-06 23:00N 54°31' E 018°43'0 0.0
2018-Aug-06 22:30N 54°31' E 018°43'0 0.0
2018-Aug-06 22:00N 54°31' E 018°43'0 0.0
2018-Aug-06 21:30N 54°31' E 018°43'0 0.0
2018-Aug-06 21:00N 54°31' E 018°43'0 0.0
2018-Aug-06 20:30N 54°31' E 018°43'0 0.0
2018-Aug-06 20:00N 54°31' E 018°43'0 0.0
2018-Aug-06 19:30N 54°31' E 018°43'0 0.0
2018-Aug-06 19:00N 54°31' E 018°43'0 0.1
2018-Aug-06 18:30N 54°31' E 018°43'0 0.0
2018-Aug-06 18:00N 54°31' E 018°43'0 0.0
2018-Aug-06 17:30N 54°31' E 018°43'0 0.0
2018-Aug-06 10:15N 54°31' E 018°43'0 0.1
2018-Aug-06 10:00N 54°31' E 018°43'0 0.0
2018-Aug-06 09:30N 54°31' E 018°43'0 0.1
2018-Aug-06 09:00N 54°31' E 018°43'0 0.1
2018-Aug-06 08:30N 54°31' E 018°43'0 0.1
2018-Aug-06 08:00N 54°31' E 018°43'0 0.0
2018-Aug-06 07:30N 54°31' E 018°43'0 0.0
2018-Aug-06 06:57N 54°31' E 018°43'0 0.1
2018-Aug-06 06:30N 54°31' E 018°43'0 0.0
2018-Aug-06 06:00N 54°31' E 018°42'0 0.0
2018-Aug-06 05:30N 54°31' E 018°43'0 0.0
2018-Aug-06 05:00N 54°31' E 018°43'0 0.0
2018-Aug-06 04:30N 54°31' E 018°43'0 0.0
2018-Aug-06 04:00N 54°31' E 018°43'0 0.0
2018-Aug-06 03:30N 54°31' E 018°43'0 0.0
2018-Aug-06 03:00N 54°31' E 018°43'0 0.0
2018-Aug-06 02:30N 54°31' E 018°43'0 0.0
2018-Aug-06 01:57N 54°31' E 018°42'0 0.0
2018-Aug-06 01:30N 54°31' E 018°43'0 0.0
2018-Aug-06 01:00N 54°31' E 018°43'0 0.0
2018-Aug-06 00:30N 54°31' E 018°43'0 0.0
2018-Aug-06 00:00N 54°31' E 018°43'0 0.0
2018-Aug-05 23:30N 54°31' E 018°43'0 0.0
2018-Aug-05 23:00N 54°31' E 018°43'0 0.0
2018-Aug-05 22:27N 54°31' E 018°43'0 0.0
2018-Aug-05 22:00N 54°31' E 018°43'0 0.0
2018-Aug-05 21:30N 54°31' E 018°43'0 0.1
2018-Aug-05 21:00N 54°31' E 018°43'0 0.1
2018-Aug-05 20:30N 54°31' E 018°43'0 0.2
2018-Aug-05 20:00N 54°31' E 018°43'0 0.0
2018-Aug-05 19:30N 54°31' E 018°43'0 0.0
2018-Aug-05 19:00N 54°31' E 018°43'0 0.1
2018-Aug-05 18:30N 54°31' E 018°43'0 0.0
2018-Aug-05 18:00N 54°31' E 018°43'0 0.0
2018-Aug-05 17:30N 54°31' E 018°43'0 0.0
2018-Aug-05 16:57N 54°31' E 018°43'0 0.0
2018-Aug-05 16:30N 54°31' E 018°43'0 0.1
2018-Aug-05 16:00N 54°31' E 018°43'0 0.1
2018-Aug-05 15:30N 54°31' E 018°43'0 0.1
2018-Aug-05 15:00N 54°31' E 018°43'0 0.0
2018-Aug-05 14:00N 54°31' E 018°43'0 0.0
2018-Aug-05 13:30N 54°31' E 018°43'0 0.0
2018-Aug-05 13:00N 54°31' E 018°43'0 0.0
2018-Aug-05 12:30N 54°31' E 018°43'0 0.1
2018-Aug-05 11:54N 54°31' E 018°43'0 0.0
2018-Aug-05 11:30N 54°31' E 018°43'0 0.0
2018-Aug-05 11:00N 54°31' E 018°43'0 0.1
2018-Aug-05 10:30N 54°31' E 018°43'0 0.0
2018-Aug-05 10:00N 54°31' E 018°43'0 0.1
2018-Aug-05 09:30N 54°31' E 018°43'0 0.2
2018-Aug-05 09:00N 54°31' E 018°43'0 0.2
2018-Aug-05 08:30N 54°31' E 018°43'0 0.1
2018-Aug-05 08:00N 54°31' E 018°43'0 0.1
2018-Aug-05 07:30N 54°31' E 018°43'0 0.1
2018-Aug-05 07:00N 54°31' E 018°43'0 0.0
2018-Aug-05 06:30N 54°31' E 018°43'0 0.0
2018-Aug-05 06:00N 54°31' E 018°43'0 0.0
2018-Aug-05 05:30N 54°31' E 018°43'0 0.0
2018-Aug-05 05:00N 54°31' E 018°43'0 0.0
2018-Aug-05 04:30N 54°31' E 018°43'0 0.0
2018-Aug-05 04:00N 54°31' E 018°43'0 0.1
2018-Aug-05 03:30N 54°31' E 018°43'0 0.0
2018-Aug-05 03:00N 54°31' E 018°43'0 0.0
2018-Aug-05 02:30N 54°31' E 018°43'  

Dump ship's entire track history